Fort Davis, TX

7:17 PM CDT on March 30, 2017 (GMT -0500)
Mountain View | | Change Station
Active Advisory: Fire Weather Warning

Elev 4870 ft 30.59 °N, 103.89 °W | Updated 8 seconds ago

Clear
Clear
74.8 °F
Feels Like 75 °F
N
7.0
Wind Variable Wind from South

Today
High -- | Low -- °F
--% Chance of Precip.
Yesterday
High -- | Low -- °F
Precip. -- in
Pressure 29.82 in
Visibility 9.0 miles
Clouds Clear
Heat Index 75 °F
Dew Point 18 °F
Humidity 12%
Rainfall 0.00 in
Snow Depth Not available.
7:46 AM 8:13 PM
Waxing Crescent, 11% visible
METAR KMRF 302356Z AUTO 24012KT 9SM CLR 23/M08 A2991 RMK AO2 SLP098 T02331083 10239 20206 56018
Pressure 29.82 in
Visibility 9.0 miles
Clouds Clear
Heat Index 75 °F
Dew Point 18 °F
Humidity 12%
Rainfall 0.00 in
Snow Depth Not available.
7:46 AM 8:13 PM
Waxing Crescent, 11% visible
METAR KMRF 302356Z AUTO 24012KT 9SM CLR 23/M08 A2991 RMK AO2 SLP098 T02331083 10239 20206 56018

Get Your Daily Forecast Email!

Thanks for signing up!

Be on the lookout for a verification email in your inbox.

You'll start receiving severe weather alerts in your inbox..

×

10-Day Weather Forecast

Almanac

Astronomy

Mar. 30, 2017 Rise Set
Actual Time
Civil Twilight
Nautical Twilight
Astronomical Twilight
Moon
Length of Visible Light
Length of Day
Tomorrow will be .
, % of the Moon is Illuminated

Today's Extremes

State Highs State Lows

Community

WunderPhotos

Upload Photos

1,962,540 photos uploaded!

WunderBlog® & News

Nearby

Air Quality

  Air Quality AQ Index Pollutant
Not available.

Snow Depth

Station Depth Elevation

Earthquake Activity

City Distance Mag. Time & Date
Minimum magnitude displayed is 2.5.

Earthquake Activity

City Distance Mag. Time & Date
Minimum magnitude displayed is 2.5.

Coastal Water Temperatures

Place Temperature

Stations

Nearby Weather Stations

Station Location Temp. Windchill Dew Point Humidity Wind Precip. Elev Updated Type
                   

Watches & Warnings

Fire Weather Warning
Issued: 1:37 PM MDT Mar. 30, 2017 – National Weather Service

... Red flag warning in effect from 1 PM CDT /noon MDT/ to 10 PM
CDT /9 PM MDT/ Friday for very low humidity, winds greater than
20 mph, and very high fire danger to extreme...

The National Weather Service in Midland/Odessa has issued a red
flag warning, which is in effect from 1 PM CDT /noon MDT/ to
10 PM CDT /9 PM MDT/ Friday. The Fire Weather Watch is no longer
in effect.

* Wind... west 20 to 35 mph with higher gust.

* Humidity... 3 to 10 percent.

* Fire danger... very high to extreme.

* Impacts... outdoor burning is not recommended.

Precautionary/preparedness actions...

This is a potentially dangerous fire weather situation. Weather
conditions like this in past have been associated with large
problematic fires.